sensor_id;sensor_type;location;lat;lon;timestamp;temperature;humidity
24448;DHT22;13348;50.984;5.822;2022-10-19T00:01:02;8.10;99.90
24448;DHT22;13348;50.984;5.822;2022-10-19T00:03:31;8.10;99.90
24448;DHT22;13348;50.984;5.822;2022-10-19T00:05:59;8.10;99.90
24448;DHT22;13348;50.984;5.822;2022-10-19T00:08:26;8.00;99.90
24448;DHT22;13348;50.984;5.822;2022-10-19T00:10:54;8.00;99.90
24448;DHT22;13348;50.984;5.822;2022-10-19T00:13:21;7.90;99.90
24448;DHT22;13348;50.984;5.822;2022-10-19T00:15:48;7.90;99.90
24448;DHT22;13348;50.984;5.822;2022-10-19T00:18:15;7.90;99.90
24448;DHT22;13348;50.984;5.822;2022-10-19T00:20:44;7.90;99.90
24448;DHT22;13348;50.984;5.822;2022-10-19T00:23:11;7.90;99.90
24448;DHT22;13348;50.984;5.822;2022-10-19T00:25:38;7.80;99.90
24448;DHT22;13348;50.984;5.822;2022-10-19T00:28:05;7.70;99.90
24448;DHT22;13348;50.984;5.822;2022-10-19T00:30:35;7.70;99.90
24448;DHT22;13348;50.984;5.822;2022-10-19T00:33:03;7.70;99.90
24448;DHT22;13348;50.984;5.822;2022-10-19T00:35:30;7.60;99.90
24448;DHT22;13348;50.984;5.822;2022-10-19T00:37:59;7.70;99.90
24448;DHT22;13348;50.984;5.822;2022-10-19T00:40:26;7.80;99.90
24448;DHT22;13348;50.984;5.822;2022-10-19T00:42:54;7.70;99.90
24448;DHT22;13348;50.984;5.822;2022-10-19T00:45:21;7.70;99.90
24448;DHT22;13348;50.984;5.822;2022-10-19T00:47:49;7.70;99.90
24448;DHT22;13348;50.984;5.822;2022-10-19T00:50:17;7.70;99.90
24448;DHT22;13348;50.984;5.822;2022-10-19T00:52:44;7.70;99.90
24448;DHT22;13348;50.984;5.822;2022-10-19T00:55:13;7.70;99.90
24448;DHT22;13348;50.984;5.822;2022-10-19T00:57:40;7.70;99.90
24448;DHT22;13348;50.984;5.822;2022-10-19T01:00:08;7.90;99.90
24448;DHT22;13348;50.984;5.822;2022-10-19T01:02:36;7.70;99.90
24448;DHT22;13348;50.984;5.822;2022-10-19T01:05:04;7.70;99.90
24448;DHT22;13348;50.984;5.822;2022-10-19T01:07:32;7.80;99.90
24448;DHT22;13348;50.984;5.822;2022-10-19T01:10:00;7.70;99.90
24448;DHT22;13348;50.984;5.822;2022-10-19T01:12:54;7.80;99.90
24448;DHT22;13348;50.984;5.822;2022-10-19T01:15:31;7.80;99.90
24448;DHT22;13348;50.984;5.822;2022-10-19T01:18:06;7.70;99.90
24448;DHT22;13348;50.984;5.822;2022-10-19T01:21:01;7.60;99.90
24448;DHT22;13348;50.984;5.822;2022-10-19T01:29:39;7.60;99.90
24448;DHT22;13348;50.984;5.822;2022-10-19T01:32:14;7.70;99.90
24448;DHT22;13348;50.984;5.822;2022-10-19T01:34:48;7.60;99.90
24448;DHT22;13348;50.984;5.822;2022-10-19T01:37:22;7.50;99.90
24448;DHT22;13348;50.984;5.822;2022-10-19T01:39:53;7.50;99.90
24448;DHT22;13348;50.984;5.822;2022-10-19T01:42:27;7.50;99.90
24448;DHT22;13348;50.984;5.822;2022-10-19T01:45:01;7.50;99.90
24448;DHT22;13348;50.984;5.822;2022-10-19T01:47:36;7.50;99.90
24448;DHT22;13348;50.984;5.822;2022-10-19T01:50:11;7.40;99.90
24448;DHT22;13348;50.984;5.822;2022-10-19T01:52:40;7.50;99.90
24448;DHT22;13348;50.984;5.822;2022-10-19T01:55:09;7.40;99.90
24448;DHT22;13348;50.984;5.822;2022-10-19T01:57:41;7.40;99.90
24448;DHT22;13348;50.984;5.822;2022-10-19T02:00:10;7.40;99.90
24448;DHT22;13348;50.984;5.822;2022-10-19T02:02:43;7.30;99.90
24448;DHT22;13348;50.984;5.822;2022-10-19T02:05:12;7.30;99.90
24448;DHT22;13348;50.984;5.822;2022-10-19T02:07:45;7.20;99.90
24448;DHT22;13348;50.984;5.822;2022-10-19T02:10:14;7.20;99.90
24448;DHT22;13348;50.984;5.822;2022-10-19T02:12:42;7.20;99.90
24448;DHT22;13348;50.984;5.822;2022-10-19T02:15:13;7.10;99.90
24448;DHT22;13348;50.984;5.822;2022-10-19T02:17:45;7.10;99.90
24448;DHT22;13348;50.984;5.822;2022-10-19T02:20:14;7.10;99.90
24448;DHT22;13348;50.984;5.822;2022-10-19T02:22:42;7.20;99.90
24448;DHT22;13348;50.984;5.822;2022-10-19T02:25:09;7.20;99.90
24448;DHT22;13348;50.984;5.822;2022-10-19T02:27:38;7.10;99.90
24448;DHT22;13348;50.984;5.822;2022-10-19T02:30:08;7.10;99.90
24448;DHT22;13348;50.984;5.822;2022-10-19T02:32:35;7.10;99.90
24448;DHT22;13348;50.984;5.822;2022-10-19T02:35:04;7.20;99.90
24448;DHT22;13348;50.984;5.822;2022-10-19T02:37:32;7.20;99.90
24448;DHT22;13348;50.984;5.822;2022-10-19T02:39:59;7.20;99.90
24448;DHT22;13348;50.984;5.822;2022-10-19T02:42:31;7.20;99.90
24448;DHT22;13348;50.984;5.822;2022-10-19T02:45:04;7.20;99.90
24448;DHT22;13348;50.984;5.822;2022-10-19T02:47:35;7.30;99.90
24448;DHT22;13348;50.984;5.822;2022-10-19T02:50:06;7.30;99.90
24448;DHT22;13348;50.984;5.822;2022-10-19T02:52:35;7.40;99.90
24448;DHT22;13348;50.984;5.822;2022-10-19T02:55:03;7.40;99.90
24448;DHT22;13348;50.984;5.822;2022-10-19T02:57:31;7.50;99.90
24448;DHT22;13348;50.984;5.822;2022-10-19T02:59:58;7.60;99.90
24448;DHT22;13348;50.984;5.822;2022-10-19T03:02:26;7.50;99.90
24448;DHT22;13348;50.984;5.822;2022-10-19T03:04:53;7.50;99.90
24448;DHT22;13348;50.984;5.822;2022-10-19T03:07:21;7.50;99.90
24448;DHT22;13348;50.984;5.822;2022-10-19T03:09:49;7.40;99.90
24448;DHT22;13348;50.984;5.822;2022-10-19T03:12:16;7.30;99.90
24448;DHT22;13348;50.984;5.822;2022-10-19T03:14:44;7.40;99.90
24448;DHT22;13348;50.984;5.822;2022-10-19T03:17:11;7.40;99.90
24448;DHT22;13348;50.984;5.822;2022-10-19T03:19:39;7.50;99.90
24448;DHT22;13348;50.984;5.822;2022-10-19T03:22:06;7.50;99.90
24448;DHT22;13348;50.984;5.822;2022-10-19T03:24:35;7.50;99.90
24448;DHT22;13348;50.984;5.822;2022-10-19T03:27:02;7.40;99.90
24448;DHT22;13348;50.984;5.822;2022-10-19T03:29:29;7.40;99.90
24448;DHT22;13348;50.984;5.822;2022-10-19T03:31:56;7.30;99.90
24448;DHT22;13348;50.984;5.822;2022-10-19T03:34:24;7.30;99.90
24448;DHT22;13348;50.984;5.822;2022-10-19T03:36:51;7.20;99.90
24448;DHT22;13348;50.984;5.822;2022-10-19T03:39:18;7.20;99.90
24448;DHT22;13348;50.984;5.822;2022-10-19T03:41:47;6.80;99.90
24448;DHT22;13348;50.984;5.822;2022-10-19T03:44:14;6.70;99.90
24448;DHT22;13348;50.984;5.822;2022-10-19T03:46:41;6.80;99.90
24448;DHT22;13348;50.984;5.822;2022-10-19T03:49:08;6.80;99.90
24448;DHT22;13348;50.984;5.822;2022-10-19T03:51:36;7.00;99.90
24448;DHT22;13348;50.984;5.822;2022-10-19T03:54:05;7.10;99.90
24448;DHT22;13348;50.984;5.822;2022-10-19T03:56:34;7.20;99.90
24448;DHT22;13348;50.984;5.822;2022-10-19T03:59:04;7.30;99.90
24448;DHT22;13348;50.984;5.822;2022-10-19T04:01:33;7.30;99.90
24448;DHT22;13348;50.984;5.822;2022-10-19T04:04:02;7.30;99.90
24448;DHT22;13348;50.984;5.822;2022-10-19T04:06:33;7.30;99.90
24448;DHT22;13348;50.984;5.822;2022-10-19T04:09:01;7.40;99.90
24448;DHT22;13348;50.984;5.822;2022-10-19T04:11:29;7.40;99.90
24448;DHT22;13348;50.984;5.822;2022-10-19T04:13:58;7.50;99.90
24448;DHT22;13348;50.984;5.822;2022-10-19T04:16:28;7.60;99.90
24448;DHT22;13348;50.984;5.822;2022-10-19T04:18:56;7.70;99.90
24448;DHT22;13348;50.984;5.822;2022-10-19T04:21:25;7.70;99.90
24448;DHT22;13348;50.984;5.822;2022-10-19T04:23:56;7.70;99.90
24448;DHT22;13348;50.984;5.822;2022-10-19T04:26:23;7.80;99.90
24448;DHT22;13348;50.984;5.822;2022-10-19T04:28:51;7.80;99.90
24448;DHT22;13348;50.984;5.822;2022-10-19T04:31:18;7.80;99.90
24448;DHT22;13348;50.984;5.822;2022-10-19T04:33:46;7.80;99.90
24448;DHT22;13348;50.984;5.822;2022-10-19T04:36:14;7.80;99.90
24448;DHT22;13348;50.984;5.822;2022-10-19T04:38:41;7.90;99.90
24448;DHT22;13348;50.984;5.822;2022-10-19T04:41:09;7.80;99.90
24448;DHT22;13348;50.984;5.822;2022-10-19T04:43:37;7.80;99.90
24448;DHT22;13348;50.984;5.822;2022-10-19T04:46:06;7.80;99.90
24448;DHT22;13348;50.984;5.822;2022-10-19T04:48:35;7.80;99.90
24448;DHT22;13348;50.984;5.822;2022-10-19T04:51:04;7.80;99.90
24448;DHT22;13348;50.984;5.822;2022-10-19T04:53:33;7.90;99.90
24448;DHT22;13348;50.984;5.822;2022-10-19T04:56:04;7.80;99.90
24448;DHT22;13348;50.984;5.822;2022-10-19T04:58:31;7.80;99.90
24448;DHT22;13348;50.984;5.822;2022-10-19T05:01:05;7.80;99.90
24448;DHT22;13348;50.984;5.822;2022-10-19T05:03:32;7.80;99.90
24448;DHT22;13348;50.984;5.822;2022-10-19T05:05:59;7.80;99.90
24448;DHT22;13348;50.984;5.822;2022-10-19T05:08:28;7.70;99.90
24448;DHT22;13348;50.984;5.822;2022-10-19T05:11:00;7.80;99.90
24448;DHT22;13348;50.984;5.822;2022-10-19T05:13:27;7.80;99.90
24448;DHT22;13348;50.984;5.822;2022-10-19T05:15:55;7.80;99.90
24448;DHT22;13348;50.984;5.822;2022-10-19T05:18:23;7.70;99.90
24448;DHT22;13348;50.984;5.822;2022-10-19T05:20:50;7.70;99.90
24448;DHT22;13348;50.984;5.822;2022-10-19T05:23:17;7.70;99.90
24448;DHT22;13348;50.984;5.822;2022-10-19T05:25:46;7.60;99.90
24448;DHT22;13348;50.984;5.822;2022-10-19T05:28:13;7.60;99.90
24448;DHT22;13348;50.984;5.822;2022-10-19T05:30:40;7.60;99.90
24448;DHT22;13348;50.984;5.822;2022-10-19T05:33:07;7.60;99.90
24448;DHT22;13348;50.984;5.822;2022-10-19T05:35:34;7.60;99.90
24448;DHT22;13348;50.984;5.822;2022-10-19T05:38:02;7.60;99.90
24448;DHT22;13348;50.984;5.822;2022-10-19T05:40:29;7.50;99.90
24448;DHT22;13348;50.984;5.822;2022-10-19T05:42:57;7.50;99.90
24448;DHT22;13348;50.984;5.822;2022-10-19T05:45:25;7.50;99.90
24448;DHT22;13348;50.984;5.822;2022-10-19T05:47:52;7.40;99.90
24448;DHT22;13348;50.984;5.822;2022-10-19T05:50:19;7.40;99.90
24448;DHT22;13348;50.984;5.822;2022-10-19T05:52:46;7.30;99.90
24448;DHT22;13348;50.984;5.822;2022-10-19T05:55:13;7.30;99.90
24448;DHT22;13348;50.984;5.822;2022-10-19T05:57:40;7.30;99.90
24448;DHT22;13348;50.984;5.822;2022-10-19T06:00:11;7.30;99.90
24448;DHT22;13348;50.984;5.822;2022-10-19T06:02:38;7.30;99.90
24448;DHT22;13348;50.984;5.822;2022-10-19T06:05:06;7.20;99.90
24448;DHT22;13348;50.984;5.822;2022-10-19T06:07:33;7.20;99.90
24448;DHT22;13348;50.984;5.822;2022-10-19T06:10:01;7.10;99.90
24448;DHT22;13348;50.984;5.822;2022-10-19T06:12:28;7.20;99.90
24448;DHT22;13348;50.984;5.822;2022-10-19T06:14:55;7.10;99.90
24448;DHT22;13348;50.984;5.822;2022-10-19T06:17:23;7.10;99.90
24448;DHT22;13348;50.984;5.822;2022-10-19T06:19:53;7.20;99.90
24448;DHT22;13348;50.984;5.822;2022-10-19T06:22:21;7.20;99.90
24448;DHT22;13348;50.984;5.822;2022-10-19T06:24:48;7.30;99.90
24448;DHT22;13348;50.984;5.822;2022-10-19T06:27:15;7.40;99.90
24448;DHT22;13348;50.984;5.822;2022-10-19T06:29:43;7.40;99.90
24448;DHT22;13348;50.984;5.822;2022-10-19T06:32:10;7.40;99.90
24448;DHT22;13348;50.984;5.822;2022-10-19T06:34:38;7.40;99.90
24448;DHT22;13348;50.984;5.822;2022-10-19T06:37:06;7.40;99.90
24448;DHT22;13348;50.984;5.822;2022-10-19T06:39:33;7.40;99.90
24448;DHT22;13348;50.984;5.822;2022-10-19T06:42:00;7.50;99.90
24448;DHT22;13348;50.984;5.822;2022-10-19T06:44:27;7.50;99.90
24448;DHT22;13348;50.984;5.822;2022-10-19T06:46:54;7.50;99.90
24448;DHT22;13348;50.984;5.822;2022-10-19T06:49:22;7.50;99.90
24448;DHT22;13348;50.984;5.822;2022-10-19T06:51:50;7.60;99.90
24448;DHT22;13348;50.984;5.822;2022-10-19T06:54:17;7.60;99.90
24448;DHT22;13348;50.984;5.822;2022-10-19T06:56:45;7.70;99.90
24448;DHT22;13348;50.984;5.822;2022-10-19T06:59:12;7.70;99.90
24448;DHT22;13348;50.984;5.822;2022-10-19T07:01:39;7.70;99.90
24448;DHT22;13348;50.984;5.822;2022-10-19T07:04:06;7.70;99.90
24448;DHT22;13348;50.984;5.822;2022-10-19T07:06:33;7.60;99.90
24448;DHT22;13348;50.984;5.822;2022-10-19T07:09:02;7.70;99.90
24448;DHT22;13348;50.984;5.822;2022-10-19T07:11:29;7.80;99.90
24448;DHT22;13348;50.984;5.822;2022-10-19T07:13:57;7.80;99.90
24448;DHT22;13348;50.984;5.822;2022-10-19T07:16:24;7.80;99.90
24448;DHT22;13348;50.984;5.822;2022-10-19T07:18:52;7.90;99.90
24448;DHT22;13348;50.984;5.822;2022-10-19T07:21:21;7.90;99.90
24448;DHT22;13348;50.984;5.822;2022-10-19T07:23:49;7.90;99.90
24448;DHT22;13348;50.984;5.822;2022-10-19T07:26:19;7.90;99.90
24448;DHT22;13348;50.984;5.822;2022-10-19T07:28:49;7.90;99.90
24448;DHT22;13348;50.984;5.822;2022-10-19T07:31:18;8.00;99.90
24448;DHT22;13348;50.984;5.822;2022-10-19T07:33:46;8.00;99.90
24448;DHT22;13348;50.984;5.822;2022-10-19T07:36:13;8.10;99.90
24448;DHT22;13348;50.984;5.822;2022-10-19T07:38:40;8.10;99.90
24448;DHT22;13348;50.984;5.822;2022-10-19T07:41:10;8.20;99.90
24448;DHT22;13348;50.984;5.822;2022-10-19T07:43:39;8.30;99.90
24448;DHT22;13348;50.984;5.822;2022-10-19T07:46:09;8.30;99.90
24448;DHT22;13348;50.984;5.822;2022-10-19T07:48:37;8.40;99.90
24448;DHT22;13348;50.984;5.822;2022-10-19T07:51:06;8.50;99.90
24448;DHT22;13348;50.984;5.822;2022-10-19T07:53:34;8.50;99.90
24448;DHT22;13348;50.984;5.822;2022-10-19T07:56:02;8.60;99.90
24448;DHT22;13348;50.984;5.822;2022-10-19T07:58:30;8.70;99.90
24448;DHT22;13348;50.984;5.822;2022-10-19T08:01:00;8.70;99.90
24448;DHT22;13348;50.984;5.822;2022-10-19T08:03:28;8.80;99.90
24448;DHT22;13348;50.984;5.822;2022-10-19T08:05:59;8.90;99.90
24448;DHT22;13348;50.984;5.822;2022-10-19T08:08:27;9.00;99.90
24448;DHT22;13348;50.984;5.822;2022-10-19T08:10:54;9.00;99.90
24448;DHT22;13348;50.984;5.822;2022-10-19T08:13:22;9.10;99.90
24448;DHT22;13348;50.984;5.822;2022-10-19T08:15:49;9.10;99.90
24448;DHT22;13348;50.984;5.822;2022-10-19T08:18:18;9.20;99.90
24448;DHT22;13348;50.984;5.822;2022-10-19T08:20:47;9.20;99.90
24448;DHT22;13348;50.984;5.822;2022-10-19T08:23:14;9.30;99.90
24448;DHT22;13348;50.984;5.822;2022-10-19T08:25:42;9.30;99.90
24448;DHT22;13348;50.984;5.822;2022-10-19T08:28:09;9.40;99.90
24448;DHT22;13348;50.984;5.822;2022-10-19T08:30:36;9.50;99.90
24448;DHT22;13348;50.984;5.822;2022-10-19T08:33:03;9.50;99.90
24448;DHT22;13348;50.984;5.822;2022-10-19T08:35:34;9.60;99.90
24448;DHT22;13348;50.984;5.822;2022-10-19T08:38:02;9.60;99.90
24448;DHT22;13348;50.984;5.822;2022-10-19T08:40:30;9.70;99.90
24448;DHT22;13348;50.984;5.822;2022-10-19T08:43:01;9.80;99.90
24448;DHT22;13348;50.984;5.822;2022-10-19T08:45:38;9.80;99.90
24448;DHT22;13348;50.984;5.822;2022-10-19T08:48:22;9.90;99.90
24448;DHT22;13348;50.984;5.822;2022-10-19T08:50:52;9.90;99.90
24448;DHT22;13348;50.984;5.822;2022-10-19T08:53:25;10.00;99.90
24448;DHT22;13348;50.984;5.822;2022-10-19T08:56:09;10.10;99.90
24448;DHT22;13348;50.984;5.822;2022-10-19T08:58:47;10.20;99.90
24448;DHT22;13348;50.984;5.822;2022-10-19T09:01:28;10.30;99.90
24448;DHT22;13348;50.984;5.822;2022-10-19T09:04:00;10.40;99.90
24448;DHT22;13348;50.984;5.822;2022-10-19T09:06:36;10.50;99.90
24448;DHT22;13348;50.984;5.822;2022-10-19T09:09:04;10.60;99.90
24448;DHT22;13348;50.984;5.822;2022-10-19T09:11:34;10.80;99.90
24448;DHT22;13348;50.984;5.822;2022-10-19T09:14:09;11.00;99.90
24448;DHT22;13348;50.984;5.822;2022-10-19T09:16:38;10.90;99.90
24448;DHT22;13348;50.984;5.822;2022-10-19T09:19:13;11.00;99.90
24448;DHT22;13348;50.984;5.822;2022-10-19T09:21:47;11.10;99.90
24448;DHT22;13348;50.984;5.822;2022-10-19T09:24:27;11.10;99.90
24448;DHT22;13348;50.984;5.822;2022-10-19T09:26:56;11.20;99.90
24448;DHT22;13348;50.984;5.822;2022-10-19T09:29:33;11.60;99.90
24448;DHT22;13348;50.984;5.822;2022-10-19T09:32:04;11.90;99.90
24448;DHT22;13348;50.984;5.822;2022-10-19T09:34:39;12.00;99.90
24448;DHT22;13348;50.984;5.822;2022-10-19T09:37:10;12.10;99.90
24448;DHT22;13348;50.984;5.822;2022-10-19T09:39:38;12.20;99.90
24448;DHT22;13348;50.984;5.822;2022-10-19T09:42:09;12.40;99.90
24448;DHT22;13348;50.984;5.822;2022-10-19T09:44:39;12.80;99.90
24448;DHT22;13348;50.984;5.822;2022-10-19T09:47:21;12.70;99.90
24448;DHT22;13348;50.984;5.822;2022-10-19T09:50:06;12.70;99.90
24448;DHT22;13348;50.984;5.822;2022-10-19T09:52:36;12.50;99.90
24448;DHT22;13348;50.984;5.822;2022-10-19T09:55:06;12.50;99.90
24448;DHT22;13348;50.984;5.822;2022-10-19T09:57:41;12.70;99.90
24448;DHT22;13348;50.984;5.822;2022-10-19T10:00:17;12.40;99.90
24448;DHT22;13348;50.984;5.822;2022-10-19T10:02:48;12.20;99.90
24448;DHT22;13348;50.984;5.822;2022-10-19T10:05:16;12.30;99.90
24448;DHT22;13348;50.984;5.822;2022-10-19T10:07:45;12.60;99.90
24448;DHT22;13348;50.984;5.822;2022-10-19T10:10:20;12.60;99.90
24448;DHT22;13348;50.984;5.822;2022-10-19T10:12:48;12.90;99.90
24448;DHT22;13348;50.984;5.822;2022-10-19T10:15:20;13.10;99.90
24448;DHT22;13348;50.984;5.822;2022-10-19T10:17:51;12.70;99.90
24448;DHT22;13348;50.984;5.822;2022-10-19T10:20:26;12.20;99.90
24448;DHT22;13348;50.984;5.822;2022-10-19T10:22:58;12.20;99.90
24448;DHT22;13348;50.984;5.822;2022-10-19T10:25:29;12.80;99.90
24448;DHT22;13348;50.984;5.822;2022-10-19T10:27:59;12.40;99.90
24448;DHT22;13348;50.984;5.822;2022-10-19T10:30:31;12.70;99.90
24448;DHT22;13348;50.984;5.822;2022-10-19T10:32:59;13.20;99.90
24448;DHT22;13348;50.984;5.822;2022-10-19T10:35:31;13.50;99.90
24448;DHT22;13348;50.984;5.822;2022-10-19T10:38:10;12.80;99.90
24448;DHT22;13348;50.984;5.822;2022-10-19T10:40:40;12.50;99.90
24448;DHT22;13348;50.984;5.822;2022-10-19T10:43:16;12.60;99.90
24448;DHT22;13348;50.984;5.822;2022-10-19T10:45:48;12.10;99.90
24448;DHT22;13348;50.984;5.822;2022-10-19T10:48:26;12.30;99.90
24448;DHT22;13348;50.984;5.822;2022-10-19T10:50:55;12.80;99.90
24448;DHT22;13348;50.984;5.822;2022-10-19T10:53:38;12.90;99.90
24448;DHT22;13348;50.984;5.822;2022-10-19T10:56:22;13.60;99.90
24448;DHT22;13348;50.984;5.822;2022-10-19T10:58:56;13.60;99.90
24448;DHT22;13348;50.984;5.822;2022-10-19T11:01:31;13.30;99.90
24448;DHT22;13348;50.984;5.822;2022-10-19T11:04:01;13.40;99.90
24448;DHT22;13348;50.984;5.822;2022-10-19T11:06:33;13.70;99.90
24448;DHT22;13348;50.984;5.822;2022-10-19T11:09:07;13.40;99.90
24448;DHT22;13348;50.984;5.822;2022-10-19T11:11:39;13.50;99.90
24448;DHT22;13348;50.984;5.822;2022-10-19T11:14:29;13.60;99.90
24448;DHT22;13348;50.984;5.822;2022-10-19T11:17:00;13.90;99.90
24448;DHT22;13348;50.984;5.822;2022-10-19T11:19:34;14.10;99.90
24448;DHT22;13348;50.984;5.822;2022-10-19T11:22:07;14.00;99.90
24448;DHT22;13348;50.984;5.822;2022-10-19T11:24:49;14.30;99.90
24448;DHT22;13348;50.984;5.822;2022-10-19T11:27:29;14.30;99.90
24448;DHT22;13348;50.984;5.822;2022-10-19T11:30:08;14.50;99.90
24448;DHT22;13348;50.984;5.822;2022-10-19T11:32:45;14.60;99.90
24448;DHT22;13348;50.984;5.822;2022-10-19T11:35:25;14.50;99.90
24448;DHT22;13348;50.984;5.822;2022-10-19T11:38:01;14.40;99.90
24448;DHT22;13348;50.984;5.822;2022-10-19T11:40:36;14.30;99.90
24448;DHT22;13348;50.984;5.822;2022-10-19T11:43:09;14.40;99.90
24448;DHT22;13348;50.984;5.822;2022-10-19T11:45:49;14.60;99.90
24448;DHT22;13348;50.984;5.822;2022-10-19T11:48:46;14.80;99.90
24448;DHT22;13348;50.984;5.822;2022-10-19T11:51:20;14.50;99.90
24448;DHT22;13348;50.984;5.822;2022-10-19T11:54:00;14.30;99.90
24448;DHT22;13348;50.984;5.822;2022-10-19T11:56:38;14.60;99.90
24448;DHT22;13348;50.984;5.822;2022-10-19T11:59:15;14.90;99.90
24448;DHT22;13348;50.984;5.822;2022-10-19T12:01:53;14.90;99.90
24448;DHT22;13348;50.984;5.822;2022-10-19T12:04:41;15.10;99.90
24448;DHT22;13348;50.984;5.822;2022-10-19T12:10:08;15.20;99.90
24448;DHT22;13348;50.984;5.822;2022-10-19T12:12:43;15.00;99.90
24448;DHT22;13348;50.984;5.822;2022-10-19T12:15:25;15.30;99.90
24448;DHT22;13348;50.984;5.822;2022-10-19T12:18:00;15.10;99.90
24448;DHT22;13348;50.984;5.822;2022-10-19T12:20:34;15.10;99.90
24448;DHT22;13348;50.984;5.822;2022-10-19T12:23:12;15.40;99.90
24448;DHT22;13348;50.984;5.822;2022-10-19T12:25:42;15.80;99.90
24448;DHT22;13348;50.984;5.822;2022-10-19T12:28:20;15.80;99.90
24448;DHT22;13348;50.984;5.822;2022-10-19T12:30:48;15.50;99.90
24448;DHT22;13348;50.984;5.822;2022-10-19T12:33:20;15.40;99.90
24448;DHT22;13348;50.984;5.822;2022-10-19T12:35:57;15.10;99.90
24448;DHT22;13348;50.984;5.822;2022-10-19T12:38:31;15.20;99.90
24448;DHT22;13348;50.984;5.822;2022-10-19T12:41:04;15.40;99.90
24448;DHT22;13348;50.984;5.822;2022-10-19T12:43:41;15.70;99.90
24448;DHT22;13348;50.984;5.822;2022-10-19T12:46:15;15.50;99.90
24448;DHT22;13348;50.984;5.822;2022-10-19T12:51:53;15.40;99.90
24448;DHT22;13348;50.984;5.822;2022-10-19T12:54:23;15.30;99.90
24448;DHT22;13348;50.984;5.822;2022-10-19T12:56:52;15.30;99.90
24448;DHT22;13348;50.984;5.822;2022-10-19T12:59:25;15.70;99.90
24448;DHT22;13348;50.984;5.822;2022-10-19T13:01:53;15.90;99.90
24448;DHT22;13348;50.984;5.822;2022-10-19T13:04:23;15.80;99.90
24448;DHT22;13348;50.984;5.822;2022-10-19T13:06:59;15.60;99.90
24448;DHT22;13348;50.984;5.822;2022-10-19T13:09:30;15.60;99.90
24448;DHT22;13348;50.984;5.822;2022-10-19T13:12:27;15.90;99.90
24448;DHT22;13348;50.984;5.822;2022-10-19T13:14:56;15.50;99.90
24448;DHT22;13348;50.984;5.822;2022-10-19T13:17:40;15.60;99.90
24448;DHT22;13348;50.984;5.822;2022-10-19T13:20:49;15.60;99.90
24448;DHT22;13348;50.984;5.822;2022-10-19T13:23:37;15.50;99.90
24448;DHT22;13348;50.984;5.822;2022-10-19T13:26:29;15.30;99.90
24448;DHT22;13348;50.984;5.822;2022-10-19T13:28:57;15.20;99.90
24448;DHT22;13348;50.984;5.822;2022-10-19T13:31:28;15.30;99.90
24448;DHT22;13348;50.984;5.822;2022-10-19T13:33:56;15.50;99.90
24448;DHT22;13348;50.984;5.822;2022-10-19T13:36:24;15.80;99.90
24448;DHT22;13348;50.984;5.822;2022-10-19T13:39:11;15.80;99.90
24448;DHT22;13348;50.984;5.822;2022-10-19T13:41:50;15.60;99.90
24448;DHT22;13348;50.984;5.822;2022-10-19T13:44:21;15.40;99.90
24448;DHT22;13348;50.984;5.822;2022-10-19T13:47:15;15.50;99.90
24448;DHT22;13348;50.984;5.822;2022-10-19T13:49:59;15.80;99.90
24448;DHT22;13348;50.984;5.822;2022-10-19T13:52:41;15.90;99.90
24448;DHT22;13348;50.984;5.822;2022-10-19T13:55:29;16.10;99.90
24448;DHT22;13348;50.984;5.822;2022-10-19T14:01:20;17.00;99.90
24448;DHT22;13348;50.984;5.822;2022-10-19T14:04:05;17.20;99.90
24448;DHT22;13348;50.984;5.822;2022-10-19T14:06:41;17.20;99.90
24448;DHT22;13348;50.984;5.822;2022-10-19T14:09:22;17.40;99.90
24448;DHT22;13348;50.984;5.822;2022-10-19T14:11:54;17.50;99.90
24448;DHT22;13348;50.984;5.822;2022-10-19T14:14:38;17.90;99.90
24448;DHT22;13348;50.984;5.822;2022-10-19T14:17:14;17.70;99.90
24448;DHT22;13348;50.984;5.822;2022-10-19T14:19:45;17.80;99.90
24448;DHT22;13348;50.984;5.822;2022-10-19T14:22:23;17.30;99.90
24448;DHT22;13348;50.984;5.822;2022-10-19T14:24:50;17.10;99.90
24448;DHT22;13348;50.984;5.822;2022-10-19T14:27:22;16.60;99.90
24448;DHT22;13348;50.984;5.822;2022-10-19T14:29:51;16.70;99.90
24448;DHT22;13348;50.984;5.822;2022-10-19T14:32:22;16.80;99.90
24448;DHT22;13348;50.984;5.822;2022-10-19T14:34:52;16.80;99.90
24448;DHT22;13348;50.984;5.822;2022-10-19T14:37:21;17.20;99.90
24448;DHT22;13348;50.984;5.822;2022-10-19T14:40:00;16.90;99.90
24448;DHT22;13348;50.984;5.822;2022-10-19T14:42:42;16.80;99.90
24448;DHT22;13348;50.984;5.822;2022-10-19T14:45:13;16.60;99.90
24448;DHT22;13348;50.984;5.822;2022-10-19T14:48:00;16.60;99.90
24448;DHT22;13348;50.984;5.822;2022-10-19T14:50:39;16.50;99.90
24448;DHT22;13348;50.984;5.822;2022-10-19T14:53:20;16.30;99.90
24448;DHT22;13348;50.984;5.822;2022-10-19T14:55:51;16.10;99.90
24448;DHT22;13348;50.984;5.822;2022-10-19T14:58:22;16.30;99.90
24448;DHT22;13348;50.984;5.822;2022-10-19T15:00:52;16.40;99.90
24448;DHT22;13348;50.984;5.822;2022-10-19T15:03:23;16.40;99.90
24448;DHT22;13348;50.984;5.822;2022-10-19T15:05:54;16.30;99.90
24448;DHT22;13348;50.984;5.822;2022-10-19T15:08:29;16.20;99.90
24448;DHT22;13348;50.984;5.822;2022-10-19T15:10:58;16.30;99.90
24448;DHT22;13348;50.984;5.822;2022-10-19T15:13:27;16.50;99.90
24448;DHT22;13348;50.984;5.822;2022-10-19T15:15:57;16.60;99.90
24448;DHT22;13348;50.984;5.822;2022-10-19T15:18:25;16.20;99.90
24448;DHT22;13348;50.984;5.822;2022-10-19T15:21:02;15.90;99.90
24448;DHT22;13348;50.984;5.822;2022-10-19T15:23:35;15.50;99.90
24448;DHT22;13348;50.984;5.822;2022-10-19T15:26:12;15.20;99.90
24448;DHT22;13348;50.984;5.822;2022-10-19T15:28:40;15.10;99.90
24448;DHT22;13348;50.984;5.822;2022-10-19T15:31:15;15.10;99.90
24448;DHT22;13348;50.984;5.822;2022-10-19T15:33:45;15.00;99.90
24448;DHT22;13348;50.984;5.822;2022-10-19T15:36:16;14.90;99.90
24448;DHT22;13348;50.984;5.822;2022-10-19T15:38:45;14.80;99.90
24448;DHT22;13348;50.984;5.822;2022-10-19T15:41:23;14.60;99.90
24448;DHT22;13348;50.984;5.822;2022-10-19T15:43:52;14.70;99.90
24448;DHT22;13348;50.984;5.822;2022-10-19T15:46:24;14.60;99.90
24448;DHT22;13348;50.984;5.822;2022-10-19T15:48:53;14.60;99.90
24448;DHT22;13348;50.984;5.822;2022-10-19T15:51:42;14.60;99.90
24448;DHT22;13348;50.984;5.822;2022-10-19T15:54:11;14.60;99.90
24448;DHT22;13348;50.984;5.822;2022-10-19T15:56:40;14.50;99.90
24448;DHT22;13348;50.984;5.822;2022-10-19T15:59:12;14.50;99.90
24448;DHT22;13348;50.984;5.822;2022-10-19T16:01:40;14.40;99.90
24448;DHT22;13348;50.984;5.822;2022-10-19T16:04:08;14.30;99.90
24448;DHT22;13348;50.984;5.822;2022-10-19T16:06:39;14.20;99.90
24448;DHT22;13348;50.984;5.822;2022-10-19T16:09:07;14.30;99.90
24448;DHT22;13348;50.984;5.822;2022-10-19T16:11:34;14.20;99.90
24448;DHT22;13348;50.984;5.822;2022-10-19T16:14:01;14.20;99.90
24448;DHT22;13348;50.984;5.822;2022-10-19T16:16:30;14.20;99.90
24448;DHT22;13348;50.984;5.822;2022-10-19T16:18:58;14.10;99.90
24448;DHT22;13348;50.984;5.822;2022-10-19T16:21:28;14.00;99.90